Time;durP1;ratioP1;P1;durP2;ratioP2;P2;SDS_P1;SDS_P2;PMS_P1;PMS_P2;Temp;Humidity;BMP_temperature;BMP_pressure;BME280_temperature;BME280_humidity;BME280_pressure;Samples;Min_cycle;Max_cycle;Signal;HPM_P1;HPM_P2
2021/12/26 10:08:10;;;;;;;16.95;8.02;;;;;;;-1.50;86.45;100714.06;5152364;27;20425;-69
2021/12/26 10:10:40;;;;;;;17.77;8.77;;;;;;;-1.44;86.20;100717.69;5137241;27;20039;-69
2021/12/26 10:13:08;;;;;;;20.08;9.13;;;;;;;-1.41;86.12;100717.81;5139677;27;20048;-69
2021/12/26 10:15:48;;;;;;;18.55;9.27;;;;;;;-1.35;86.01;100718.06;5144560;27;20054;-68
2021/12/26 10:18:28;;;;;;;19.35;8.52;;;;;;;-1.27;86.34;100710.72;5144289;27;20495;-68
2021/12/26 10:20:56;;;;;;;19.88;8.73;;;;;;;-1.18;85.94;100716.16;5141881;27;20050;-68
2021/12/26 10:23:30;;;;;;;21.65;9.25;;;;;;;-1.08;86.09;100719.91;5143866;27;20047;-68
2021/12/26 10:25:58;;;;;;;19.92;9.52;;;;;;;-1.05;85.64;100715.81;5142226;27;20471;-68
2021/12/26 10:28:25;;;;;;;23.83;9.50;;;;;;;-0.97;86.03;100721.22;5145419;27;20057;-67
2021/12/26 10:30:52;;;;;;;24.30;10.07;;;;;;;-0.89;85.59;100718.97;5147562;27;20043;-67
2021/12/26 10:33:20;;;;;;;25.95;10.05;;;;;;;-0.85;85.31;100726.75;5137974;27;20071;-68
2021/12/26 10:35:48;;;;;;;20.50;9.90;;;;;;;-0.77;85.39;100720.28;5139965;27;20937;-67
2021/12/26 10:38:17;;;;;;;24.42;10.10;;;;;;;-0.67;85.76;100732.53;5136882;27;20044;-68
2021/12/26 10:40:51;;;;;;;19.67;9.30;;;;;;;-0.57;85.05;100723.53;5133645;27;20123;-67
2021/12/26 10:43:18;;;;;;;20.00;8.73;;;;;;;-0.50;85.44;100727.19;5131694;27;20419;-66
2021/12/26 10:45:45;;;;;;;21.77;9.18;;;;;;;-0.45;84.76;100723.13;5138600;27;20043;-65
2021/12/26 10:48:13;;;;;;;21.23;10.00;;;;;;;-0.41;84.45;100724.97;5138905;27;20042;-65
2021/12/26 10:50:42;;;;;;;24.55;10.20;;;;;;;-0.37;84.30;100717.50;5137017;27;20384;-68
2021/12/26 10:53:13;;;;;;;21.55;8.95;;;;;;;-0.37;83.57;100722.59;5137863;27;20112;-68
2021/12/26 10:55:42;;;;;;;21.85;9.68;;;;;;;-0.36;83.14;100723.47;5132550;27;20070;-68
2021/12/26 10:58:13;;;;;;;23.75;10.70;;;;;;;-0.34;83.13;100726.94;5139365;27;20047;-68
2021/12/26 11:00:42;;;;;;;20.67;9.20;;;;;;;-0.33;83.47;100724.44;5139812;27;20054;-68
2021/12/26 11:03:11;;;;;;;19.10;9.43;;;;;;;-0.32;82.93;100730.41;5132782;27;20373;-68
2021/12/26 11:05:41;;;;;;;21.55;9.20;;;;;;;-0.27;83.55;100728.88;5137796;27;20047;-69
2021/12/26 11:08:11;;;;;;;20.15;8.60;;;;;;;-0.21;83.64;100729.09;5133596;27;20057;-69
2021/12/26 11:10:41;;;;;;;19.83;8.50;;;;;;;-0.16;83.41;100736.88;5133835;27;20508;-69
2021/12/26 11:13:18;;;;;;;23.40;9.48;;;;;;;-0.10;83.26;100735.41;5131416;27;20059;-72
2021/12/26 11:15:46;;;;;;;19.20;8.57;;;;;;;-0.04;83.67;100733.06;5130551;27;20055;-72
2021/12/26 11:18:15;;;;;;;19.27;9.00;;;;;;;0.02;83.54;100731.56;5130712;27;20062;-72
2021/12/26 11:20:44;;;;;;;18.08;9.00;;;;;;;0.07;83.41;100735.16;5122497;27;20098;-72
2021/12/26 11:23:14;;;;;;;18.85;8.93;;;;;;;0.07;82.60;100736.00;5122462;27;20062;-71
2021/12/26 11:25:44;;;;;;;22.27;8.80;;;;;;;0.07;82.40;100730.06;5129735;27;20395;-72
2021/12/26 11:28:15;;;;;;;21.23;9.02;;;;;;;0.11;83.27;100739.53;5122755;27;20043;-71
2021/12/26 11:30:45;;;;;;;19.00;9.60;;;;;;;0.12;82.11;100725.97;5118355;27;20054;-71
2021/12/26 11:33:13;;;;;;;19.00;9.07;;;;;;;0.16;82.40;100735.44;5115486;27;20039;-71
2021/12/26 11:35:41;;;;;;;17.20;8.30;;;;;;;0.19;81.89;100740.66;5122928;27;20051;-70
2021/12/26 11:38:14;;;;;;;20.70;8.77;;;;;;;0.20;82.11;100742.38;5114691;27;20061;-71
2021/12/26 11:40:42;;;;;;;19.98;9.23;;;;;;;0.18;81.74;100746.56;5116706;27;20074;-71
2021/12/26 11:46:38;;;;;;;17.88;9.18;;;;;;;0.12;81.16;100743.81;5113367;27;20883;-72
2021/12/26 11:49:33;;;;;;;20.27;8.77;;;;;;;0.11;81.18;100742.09;5119376;27;21711;-70
2021/12/26 11:52:16;;;;;;;20.05;9.27;;;;;;;0.11;80.94;100745.50;5115643;27;20411;-70
2021/12/26 11:54:54;;;;;;;18.15;8.50;;;;;;;0.13;81.49;100748.09;5112570;27;20052;-61
2021/12/26 11:57:53;;;;;;;19.95;8.80;;;;;;;0.12;80.99;100754.88;5114275;27;20051;-63
2021/12/26 12:00:26;;;;;;;22.92;9.35;;;;;;;0.16;81.75;100753.28;5113755;27;20052;-63
2021/12/26 12:02:57;;;;;;;20.63;9.40;;;;;;;0.12;81.62;100751.47;5113037;27;20392;-63
2021/12/26 12:05:27;;;;;;;22.88;9.20;;;;;;;0.09;81.13;100753.91;5114511;27;20113;-62
2021/12/26 12:08:00;;;;;;;18.70;9.82;;;;;;;0.08;81.18;100747.06;5120172;27;20047;-62
2021/12/26 12:10:41;;;;;;;18.27;9.35;;;;;;;0.08;81.41;100753.03;5111612;27;20062;-64
2021/12/26 12:13:11;;;;;;;18.23;9.70;;;;;;;0.10;81.38;100760.75;5116107;27;20103;-64
2021/12/26 12:15:51;;;;;;;19.05;9.32;;;;;;;0.09;80.95;100757.31;5115997;27;20043;-65
2021/12/26 12:18:22;;;;;;;17.17;8.90;;;;;;;0.08;81.57;100758.13;5113587;27;20054;-64
2021/12/26 12:21:08;;;;;;;18.67;9.13;;;;;;;0.10;81.38;100755.63;5116107;27;20043;-64
2021/12/26 12:23:35;;;;;;;18.65;8.73;;;;;;;0.08;81.10;100760.69;5117291;27;20039;-64
2021/12/26 12:26:03;;;;;;;19.52;9.73;;;;;;;0.07;81.16;100760.63;5110278;27;20052;-64
2021/12/26 12:28:32;;;;;;;19.52;9.48;;;;;;;-0.02;81.05;100767.13;5113345;27;20039;-65
2021/12/26 12:31:18;;;;;;;19.30;9.50;;;;;;;-0.01;81.07;100768.84;5113780;27;20460;-65
2021/12/26 12:34:03;;;;;;;20.02;9.27;;;;;;;-0.02;80.51;100773.91;5116118;27;20057;-65
2021/12/26 12:36:33;;;;;;;19.65;9.52;;;;;;;-0.03;81.52;100769.63;5112417;27;20040;-63
2021/12/26 12:39:16;;;;;;;21.08;10.45;;;;;;;-0.04;81.15;100768.75;5113422;27;20047;-62
2021/12/26 12:41:47;;;;;;;20.38;10.60;;;;;;;-0.06;82.03;100770.38;5118984;27;20082;-65
2021/12/26 12:44:30;;;;;;;19.17;9.27;;;;;;;-0.17;80.59;100765.72;5112819;27;20207;-63
2021/12/26 12:47:02;;;;;;;17.88;9.15;;;;;;;-0.23;81.42;100766.38;5115732;27;20594;-62
2021/12/26 12:49:49;;;;;;;23.00;10.45;;;;;;;-0.25;82.16;100773.09;5117083;27;20081;-59
2021/12/26 12:52:42;;;;;;;21.45;10.30;;;;;;;-0.30;81.70;100776.28;5112285;27;20043;-60
2021/12/26 12:55:13;;;;;;;23.02;10.55;;;;;;;-0.35;82.15;100777.00;5112505;27;20054;-59
2021/12/26 12:57:42;;;;;;;21.30;10.23;;;;;;;-0.37;82.72;100783.72;5105433;27;20097;-59
2021/12/26 13:00:43;;;;;;;22.13;10.25;;;;;;;-0.41;82.36;100786.09;5095329;27;20055;-59
2021/12/26 13:03:19;;;;;;;22.40;10.15;;;;;;;-0.44;82.10;100786.00;5099309;27;20111;-59
2021/12/26 13:05:48;;;;;;;;;;;;;;;-0.49;81.65;100798.56;5103177;27;20076;-59
2021/12/26 13:08:17;;;;;;;19.23;9.18;;;;;;;-0.50;82.73;100795.94;5100846;28;20454;-60
2021/12/26 13:10:49;;;;;;;24.70;11.93;;;;;;;-0.49;82.98;100792.59;5099460;28;20051;-59
2021/12/26 13:13:20;;;;;;;20.00;10.73;;;;;;;-0.50;83.66;100795.94;5103033;28;20063;-60
2021/12/26 13:15:58;;;;;;;24.45;11.15;;;;;;;-0.53;83.35;100803.44;5106622;28;20043;-60
2021/12/26 13:18:27;;;;;;;27.95;11.00;;;;;;;-0.60;82.36;100801.47;5102090;28;20459;-60
2021/12/26 13:20:58;;;;;;;21.65;10.80;;;;;;;-0.60;83.87;100809.13;5092058;28;20059;-60
2021/12/26 13:23:26;;;;;;;22.13;10.82;;;;;;;-0.66;83.33;100803.00;5091871;28;20051;-60
2021/12/26 13:25:54;;;;;;;24.35;10.77;;;;;;;-0.75;83.33;100807.75;5107300;28;20040;-61
2021/12/26 13:28:26;;;;;;;27.88;11.82;;;;;;;-0.82;83.00;100808.31;5104279;28;20401;-61
2021/12/26 13:30:58;;;;;;;21.63;11.65;;;;;;;-1.00;83.18;100802.53;5096916;28;20047;-60
2021/12/26 13:33:30;;;;;;;22.58;11.63;;;;;;;-1.04;83.47;100805.72;5100765;28;20389;-62
2021/12/26 13:36:01;;;;;;;25.77;11.13;;;;;;;-1.07;83.64;100815.78;5092002;28;20361;-62
2021/12/26 13:38:34;;;;;;;22.25;9.88;;;;;;;-1.09;83.76;100818.25;5099342;28;20150;-61
2021/12/26 13:41:01;;;;;;;21.60;9.88;;;;;;;-1.12;83.90;100812.19;5091124;28;20043;-61
2021/12/26 13:43:31;;;;;;;25.15;11.35;;;;;;;-1.13;83.90;100818.09;5091191;28;20048;-61
2021/12/26 13:45:59;;;;;;;22.35;10.20;;;;;;;-1.16;84.13;100831.56;5095280;28;20098;-61
2021/12/26 13:48:29;;;;;;;22.80;10.02;;;;;;;-1.18;84.33;100832.28;5092352;28;20049;-61
2021/12/26 13:50:57;;;;;;;21.85;11.20;;;;;;;-1.24;84.36;100821.88;5100555;28;20468;-62
2021/12/26 13:53:26;;;;;;;20.20;10.10;;;;;;;-1.27;84.56;100823.50;5103464;28;20067;-61
2021/12/26 13:55:55;;;;;;;26.10;12.40;;;;;;;-1.32;84.74;100822.44;5089107;28;20044;-61
2021/12/26 13:58:28;;;;;;;22.17;11.00;;;;;;;-1.42;84.54;100822.88;5094209;28;20385;-61
2021/12/26 14:00:57;;;;;;;25.15;11.43;;;;;;;-1.47;84.98;100819.28;5099082;28;20049;-61
2021/12/26 14:03:25;;;;;;;23.48;10.85;;;;;;;-1.53;84.63;100820.69;5102198;28;20098;-62
2021/12/26 14:05:53;;;;;;;26.13;11.95;;;;;;;-1.55;85.34;100830.81;5102450;28;20525;-62
2021/12/26 14:08:24;;;;;;;25.73;11.35;;;;;;;-1.60;85.06;100830.59;5103871;28;20051;-61
2021/12/26 14:11:02;;;;;;;25.38;12.23;;;;;;;-1.70;84.93;100830.13;5105077;28;20062;-61
2021/12/26 14:13:31;;;;;;;25.10;11.68;;;;;;;-1.75;85.32;100827.41;5108778;28;20048;-62
2021/12/26 14:16:00;;;;;;;24.02;10.73;;;;;;;-1.80;85.20;100833.09;5104640;28;20443;-62
2021/12/26 14:18:31;;;;;;;23.90;11.35;;;;;;;-1.89;85.70;100832.72;5108075;28;20097;-62
2021/12/26 14:21:01;;;;;;;21.17;9.95;;;;;;;-1.95;85.71;100839.25;5107710;28;20058;-61
2021/12/26 14:23:39;;;;;;;23.52;11.23;;;;;;;-1.99;86.12;100832.31;5108829;28;20087;-61
2021/12/26 14:26:12;;;;;;;22.25;10.43;;;;;;;-2.05;86.27;100851.50;5100500;28;20065;-61
2021/12/26 14:28:44;;;;;;;25.60;10.88;;;;;;;-2.11;86.83;100847.00;5104299;28;20484;-62
2021/12/26 14:31:28;;;;;;;26.48;11.35;;;;;;;-2.17;86.89;100854.34;5105326;28;20052;-61
2021/12/26 14:34:01;;;;;;;25.63;11.40;;;;;;;-2.18;87.27;100860.22;5108007;27;20047;-61
2021/12/26 14:36:31;;;;;;;25.70;12.05;;;;;;;-2.22;87.17;100868.50;5101688;28;20051;-61
2021/12/26 14:39:07;;;;;;;22.85;11.68;;;;;;;-2.28;87.26;100858.06;5092602;28;20052;-61
2021/12/26 14:41:46;;;;;;;27.10;12.32;;;;;;;-2.34;86.75;100868.81;5095621;28;20094;-61
2021/12/26 14:44:19;;;;;;;23.90;11.05;;;;;;;-2.39;87.31;100865.22;5105849;28;20068;-61
2021/12/26 14:46:50;;;;;;;27.88;11.95;;;;;;;-2.44;87.86;100873.41;5101430;28;20404;-61
2021/12/26 14:49:26;;;;;;;25.98;12.38;;;;;;;-2.47;87.71;100876.69;5107654;28;20568;-61
2021/12/26 14:52:04;;;;;;;28.80;12.30;;;;;;;-2.49;87.83;100869.81;5098632;27;20392;-61
2021/12/26 14:54:42;;;;;;;24.45;11.50;;;;;;;-2.51;87.92;100882.41;5095916;28;20047;-61
2021/12/26 14:57:31;;;;;;;27.92;12.27;;;;;;;-2.54;88.22;100884.81;5100225;28;20135;-61
2021/12/26 15:00:05;;;;;;;29.95;12.23;;;;;;;-2.59;88.27;100884.59;5101807;28;20077;-61
2021/12/26 15:02:36;;;;;;;23.55;11.45;;;;;;;-2.63;88.13;100885.22;5103580;28;22093;-61
2021/12/26 15:05:10;;;;;;;25.02;11.35;;;;;;;-2.66;88.57;100884.22;5103876;28;20565;-61
2021/12/26 15:07:47;;;;;;;27.67;12.13;;;;;;;-2.68;88.48;100891.75;5106593;28;20100;-61
2021/12/26 15:10:24;;;;;;;28.10;12.10;;;;;;;-2.68;88.95;100896.84;5106478;28;20055;-61
2021/12/26 15:13:00;;;;;;;23.98;11.13;;;;;;;-2.69;88.94;100894.22;5097011;27;20077;-61
2021/12/26 15:15:32;;;;;;;25.08;11.77;;;;;;;-2.75;89.00;100894.81;5099930;27;20126;-60
2021/12/26 15:18:08;;;;;;;29.60;11.75;;;;;;;-2.78;89.13;100889.59;5099362;27;22313;-60
2021/12/26 15:20:50;;;;;;;27.55;13.82;;;;;;;-2.83;89.52;100890.19;5096756;28;20084;-60
2021/12/26 15:23:20;;;;;;;33.78;14.20;;;;;;;-2.90;89.65;100897.50;5094031;27;20062;-61
2021/12/26 15:25:54;;;;;;;29.20;14.15;;;;;;;-2.91;89.55;100892.34;5095282;27;20047;-61
2021/12/26 15:28:28;;;;;;;29.83;13.82;;;;;;;-2.94;89.91;100894.75;5101979;27;20047;-61
2021/12/26 15:31:05;;;;;;;31.00;12.45;;;;;;;-2.93;90.05;100893.94;5097899;27;20059;-61
2021/12/26 15:33:35;;;;;;;25.73;10.43;;;;;;;-2.95;90.14;100900.59;5095100;27;20048;-61
2021/12/26 15:36:05;;;;;;;24.88;12.15;;;;;;;-2.98;90.23;100895.38;5098293;27;20472;-61
2021/12/26 15:38:37;;;;;;;26.83;12.20;;;;;;;-2.99;90.58;100906.31;5100415;27;21732;-61
2021/12/26 15:41:05;;;;;;;23.42;11.05;;;;;;;-2.99;90.51;100909.72;5095503;27;20051;-61
2021/12/26 15:43:34;;;;;;;25.23;10.90;;;;;;;-3.02;90.39;100908.72;5096405;27;20048;-61
2021/12/26 15:46:04;;;;;;;20.88;10.82;;;;;;;-3.01;90.60;100915.53;5102476;28;20048;-61
2021/12/26 15:48:33;;;;;;;24.90;11.38;;;;;;;-3.02;90.49;100913.78;5096874;28;20044;-61
2021/12/26 15:51:01;;;;;;;25.80;11.40;;;;;;;-3.03;90.47;100912.06;5100754;28;20540;-61
2021/12/26 15:53:28;;;;;;;25.85;12.25;;;;;;;-3.02;90.59;100913.78;5101917;28;20051;-61
2021/12/26 15:55:55;;;;;;;31.65;14.07;;;;;;;-3.05;90.37;100923.78;5092948;28;20062;-61
2021/12/26 15:58:22;;;;;;;31.55;15.63;;;;;;;-3.07;90.07;100917.78;5094758;28;20056;-61
2021/12/26 16:00:51;;;;;;;33.15;13.52;;;;;;;-3.14;89.64;100918.22;5099490;28;20128;-61
2021/12/26 16:03:18;;;;;;;32.75;13.43;;;;;;;-3.12;90.18;100916.63;5099078;28;20044;-61
2021/12/26 16:05:45;;;;;;;34.20;15.50;;;;;;;-3.15;89.96;100916.50;5092733;28;20369;-61
2021/12/26 16:08:12;;;;;;;38.15;14.68;;;;;;;-3.21;90.37;100917.94;5094703;27;20051;-61
2021/12/26 16:10:40;;;;;;;38.30;16.63;;;;;;;-3.22;90.67;100916.19;5097601;28;20056;-61
2021/12/26 16:13:08;;;;;;;37.90;17.20;;;;;;;-3.24;90.33;100922.84;5098123;28;20056;-61
2021/12/26 16:15:37;;;;;;;31.90;14.48;;;;;;;-3.26;90.71;100918.50;5098099;28;20044;-63
2021/12/26 16:18:07;;;;;;;27.50;13.18;;;;;;;-3.27;90.47;100920.16;5097454;28;20559;-63
2021/12/26 16:20:34;;;;;;;24.83;11.55;;;;;;;-3.29;90.62;100924.28;5097370;28;20055;-63
2021/12/26 16:23:01;;;;;;;26.75;11.48;;;;;;;-3.33;90.63;100919.88;5097510;28;20450;-64
2021/12/26 16:25:28;;;;;;;28.60;12.60;;;;;;;-3.36;90.34;100922.25;5095665;28;20119;-63
2021/12/26 16:27:56;;;;;;;29.88;13.57;;;;;;;-3.37;90.85;100925.56;5100829;28;20067;-63
2021/12/26 16:30:25;;;;;;;27.02;11.57;;;;;;;-3.36;91.06;100924.78;5093119;28;20469;-63
2021/12/26 16:32:54;;;;;;;30.75;14.07;;;;;;;-3.39;90.41;100926.28;5100337;27;20043;-63
2021/12/26 16:35:24;;;;;;;33.70;12.63;;;;;;;-3.41;91.01;100928.75;5105033;27;20078;-64
2021/12/26 16:37:52;;;;;;;34.03;12.57;;;;;;;-3.46;90.55;100930.19;5102975;27;20039;-64
2021/12/26 16:40:33;;;;;;;24.13;10.68;;;;;;;-3.51;90.67;100929.09;5102866;27;20062;-64
2021/12/26 16:43:14;;;;;;;23.98;10.90;;;;;;;-3.53;91.09;100935.72;5101560;27;20055;-64
2021/12/26 16:45:48;;;;;;;26.23;10.57;;;;;;;-3.56;91.19;100938.13;5092122;28;20063;-63
2021/12/26 16:48:24;;;;;;;26.30;12.30;;;;;;;-3.58;91.10;100927.03;5101630;27;20476;-62
2021/12/26 16:51:03;;;;;;;26.88;10.45;;;;;;;-3.61;91.35;100934.47;5094040;27;20047;-63
2021/12/26 16:53:30;;;;;;;24.15;12.23;;;;;;;-3.57;91.43;100937.25;5101507;27;20047;-62
2021/12/26 16:55:59;;;;;;;23.42;10.60;;;;;;;-3.57;91.21;100938.91;5101735;27;20040;-62
2021/12/26 16:58:28;;;;;;;26.55;12.02;;;;;;;-3.56;91.44;100948.25;5097167;27;20047;-62
2021/12/26 17:00:58;;;;;;;26.13;11.38;;;;;;;-3.56;91.29;100950.78;5101081;27;20097;-62
2021/12/26 17:03:25;;;;;;;26.13;11.02;;;;;;;-3.60;91.00;100946.34;5103775;27;20058;-63
2021/12/26 17:06:01;;;;;;;25.98;10.68;;;;;;;-3.59;91.01;100945.56;5097111;27;20048;-62
2021/12/26 17:08:29;;;;;;;26.27;9.85;;;;;;;-3.62;91.10;100947.94;5102552;27;20096;-62
2021/12/26 17:10:57;;;;;;;26.30;11.07;;;;;;;-3.62;91.45;100942.88;5103952;27;20044;-62
2021/12/26 17:13:31;;;;;;;25.50;11.52;;;;;;;-3.63;91.24;100951.25;5104421;27;20055;-62
2021/12/26 17:16:02;;;;;;;24.08;11.00;;;;;;;-3.66;91.02;100951.06;5101002;27;20128;-62
2021/12/26 17:18:30;;;;;;;25.90;11.70;;;;;;;-3.70;90.65;100954.25;5101782;27;20040;-62
2021/12/26 17:21:04;;;;;;;25.95;10.77;;;;;;;-3.70;91.15;100959.31;5100742;27;20059;-62
2021/12/26 17:23:34;;;;;;;22.98;10.13;;;;;;;-3.72;91.17;100965.97;5094261;27;20052;-61
2021/12/26 17:26:01;;;;;;;25.48;10.43;;;;;;;-3.78;90.53;100963.97;5099737;27;20047;-61
2021/12/26 17:28:30;;;;;;;25.80;11.27;;;;;;;-3.79;90.64;100966.44;5103876;27;20044;-62
2021/12/26 17:30:57;;;;;;;21.50;10.48;;;;;;;-3.83;90.85;100973.88;5096193;27;20044;-61
2021/12/26 17:33:25;;;;;;;24.88;10.45;;;;;;;-3.85;91.22;100970.38;5097727;27;22254;-62
2021/12/26 17:35:52;;;;;;;23.65;10.85;;;;;;;-3.89;90.94;100972.69;5101292;27;20044;-62
2021/12/26 17:38:22;;;;;;;31.50;12.40;;;;;;;-3.92;91.28;100968.31;5100456;27;20052;-63
2021/12/26 17:40:49;;;;;;;33.13;12.50;;;;;;;-3.94;91.45;100969.91;5100115;27;20052;-63
2021/12/26 17:43:16;;;;;;;27.48;12.50;;;;;;;-3.93;91.56;100971.63;5098576;27;20629;-64
2021/12/26 17:45:47;;;;;;;25.70;10.55;;;;;;;-3.94;91.55;100976.63;5103448;27;20055;-62
2021/12/26 17:48:17;;;;;;;28.05;10.75;;;;;;;-3.94;91.50;100967.38;5097153;27;20044;-62
2021/12/26 17:50:45;;;;;;;25.40;10.60;;;;;;;-3.95;91.47;100973.22;5098640;27;20103;-64
2021/12/26 17:53:13;;;;;;;28.23;11.55;;;;;;;-3.99;91.46;100967.91;5098350;27;20063;-64
2021/12/26 17:55:42;;;;;;;30.45;11.80;;;;;;;-4.00;91.57;100974.63;5098294;27;20483;-64
2021/12/26 17:58:10;;;;;;;30.65;12.88;;;;;;;-4.00;91.42;100974.63;5098408;27;20059;-64
2021/12/26 18:00:42;;;;;;;30.17;12.00;;;;;;;-4.00;91.69;100973.78;5095831;27;20052;-64
2021/12/26 18:03:12;;;;;;;28.50;11.45;;;;;;;-3.97;91.96;100979.88;5100212;27;20078;-63
2021/12/26 18:05:41;;;;;;;25.80;12.15;;;;;;;-3.98;91.42;100980.66;5092934;27;20487;-63
2021/12/26 18:08:11;;;;;;;24.42;10.85;;;;;;;-4.00;91.65;100979.69;5099635;27;20044;-63
2021/12/26 18:10:40;;;;;;;30.08;11.63;;;;;;;-4.00;91.44;100978.84;5096570;27;20528;-64
2021/12/26 18:13:09;;;;;;;30.17;12.20;;;;;;;-4.02;91.52;100985.47;5093675;27;20070;-64
2021/12/26 18:15:40;;;;;;;26.85;11.45;;;;;;;-4.03;91.31;100986.25;5095625;27;20056;-62
2021/12/26 18:18:07;;;;;;;25.85;10.65;;;;;;;-4.05;91.58;100981.13;5101625;27;20040;-63
2021/12/26 18:20:37;;;;;;;26.52;10.68;;;;;;;-4.06;91.34;100989.50;5097723;27;20123;-63
2021/12/26 18:23:05;;;;;;;23.10;11.23;;;;;;;-4.08;91.57;100991.09;5098678;27;20058;-63
2021/12/26 18:25:35;;;;;;;24.17;10.82;;;;;;;-4.09;91.73;100989.34;5101100;27;20047;-63
2021/12/26 18:28:02;;;;;;;19.27;9.60;;;;;;;-4.10;91.50;100990.13;5096485;27;20399;-63
2021/12/26 18:30:32;;;;;;;30.50;11.70;;;;;;;-4.11;91.60;100995.97;5095682;27;20052;-63
2021/12/26 18:33:01;;;;;;;23.33;10.18;;;;;;;-4.11;91.99;100995.13;5094257;27;20051;-64
2021/12/26 18:35:30;;;;;;;29.52;11.27;;;;;;;-4.13;91.62;101002.63;5098115;27;20076;-63
2021/12/26 18:37:57;;;;;;;22.80;9.95;;;;;;;-4.14;92.11;101001.75;5100171;27;20101;-63
2021/12/26 18:40:28;;;;;;;25.65;10.68;;;;;;;-4.14;92.16;101011.00;5097185;27;20550;-63
2021/12/26 18:42:57;;;;;;;22.88;10.85;;;;;;;-4.15;92.22;101006.72;5093532;27;20052;-64
2021/12/26 18:45:25;;;;;;;30.38;11.02;;;;;;;-4.14;92.26;101008.47;5095084;27;20074;-63
2021/12/26 18:47:54;;;;;;;23.85;10.63;;;;;;;-4.17;92.18;101003.22;5092392;27;20054;-63
2021/12/26 18:50:22;;;;;;;24.77;10.45;;;;;;;-4.20;92.85;101005.56;5091868;27;20039;-64
2021/12/26 18:52:50;;;;;;;24.10;9.77;;;;;;;-4.19;92.92;101007.31;5091525;28;20055;-64
2021/12/26 18:55:18;;;;;;;24.10;11.00;;;;;;;-4.18;93.29;101004.88;5091230;28;20055;-63
2021/12/26 18:57:45;;;;;;;25.33;10.20;;;;;;;-4.15;93.08;101016.84;5092455;28;20058;-64
2021/12/26 19:00:15;;;;;;;23.30;9.93;;;;;;;-4.14;93.49;101005.94;5091254;28;20062;-63
2021/12/26 19:02:47;;;;;;;23.20;11.18;;;;;;;-4.10;93.40;101012.03;5093096;28;20058;-64
2021/12/26 19:05:17;;;;;;;23.92;10.15;;;;;;;-4.07;93.42;101012.22;5094048;27;20047;-63
2021/12/26 19:07:45;;;;;;;28.83;10.93;;;;;;;-4.08;93.25;101008.81;5094944;28;20042;-64
2021/12/26 19:10:12;;;;;;;27.20;12.07;;;;;;;-4.07;93.34;101013.09;5095374;28;20052;-63
2021/12/26 19:12:39;;;;;;;22.85;10.57;;;;;;;-4.07;93.35;101013.09;5097213;28;20435;-64
2021/12/26 19:15:07;;;;;;;24.33;10.95;;;;;;;-4.05;93.43;101014.03;5093573;28;20051;-64
2021/12/26 19:17:34;;;;;;;28.42;10.88;;;;;;;-4.06;93.30;101017.34;5090910;28;20038;-63
2021/12/26 19:20:02;;;;;;;26.20;10.88;;;;;;;-4.03;93.49;101022.59;5093217;28;20059;-63
2021/12/26 19:22:30;;;;;;;26.55;10.15;;;;;;;-4.06;93.16;101022.41;5089842;28;20044;-64
2021/12/26 19:24:57;;;;;;;23.08;10.60;;;;;;;-4.04;93.46;101023.38;5091607;28;20059;-64
2021/12/26 19:27:25;;;;;;;24.50;10.57;;;;;;;-4.03;93.48;101020.06;5092665;28;20032;-64
2021/12/26 19:29:52;;;;;;;22.17;10.02;;;;;;;-3.99;93.65;101027.03;5091720;28;20047;-63
2021/12/26 19:32:19;;;;;;;22.67;9.13;;;;;;;-3.98;93.48;101023.72;5092809;28;20477;-64
2021/12/26 19:34:48;;;;;;;23.75;9.70;;;;;;;-3.96;93.39;101022.13;5097756;28;20043;-64
2021/12/26 19:37:15;;;;;;;21.52;9.15;;;;;;;-3.95;93.71;101023.88;5094667;28;20172;-64
2021/12/26 19:39:45;;;;;;;21.65;9.23;;;;;;;-3.96;93.84;101031.38;5096878;28;20055;-63
2021/12/26 19:42:12;;;;;;;22.30;9.88;;;;;;;-3.98;93.56;101028.78;5095589;27;20047;-64
2021/12/26 19:44:40;;;;;;;22.70;9.23;;;;;;;-3.99;93.64;101037.16;5091936;28;20443;-64
2021/12/26 19:47:11;;;;;;;19.85;9.13;;;;;;;-4.00;93.30;101035.41;5094526;28;20047;-64
2021/12/26 19:49:38;;;;;;;20.95;9.70;;;;;;;-4.00;93.22;101035.41;5095966;28;20500;-64
2021/12/26 19:52:06;;;;;;;20.67;9.60;;;;;;;-4.01;93.33;101036.22;5092377;28;20047;-64
2021/12/26 19:54:33;;;;;;;23.58;10.07;;;;;;;-4.02;93.24;101036.13;5095528;27;20051;-64
2021/12/26 19:57:03;;;;;;;17.98;7.82;;;;;;;-4.03;93.29;101025.13;5094360;28;20093;-64
2021/12/26 19:59:31;;;;;;;22.35;10.05;;;;;;;-4.05;93.07;101025.81;5091959;28;20125;-64
2021/12/26 20:02:03;;;;;;;22.58;9.02;;;;;;;-4.07;93.24;101028.28;5090877;28;20052;-65
2021/12/26 20:04:30;;;;;;;23.55;10.27;;;;;;;-4.08;93.36;101026.53;5089183;28;20039;-64
2021/12/26 20:06:57;;;;;;;27.77;11.13;;;;;;;-4.12;93.53;101024.63;5098195;27;20052;-64
2021/12/26 20:09:24;;;;;;;24.27;10.40;;;;;;;-4.13;93.55;101027.94;5098779;27;20461;-64
2021/12/26 20:11:52;;;;;;;24.98;10.93;;;;;;;-4.14;93.60;101029.59;5096201;27;20051;-64
2021/12/26 20:14:20;;;;;;;25.00;9.63;;;;;;;-4.13;93.46;101027.94;5098125;27;20645;-64
2021/12/26 20:16:48;;;;;;;22.63;11.07;;;;;;;-4.13;93.79;101027.94;5097776;27;20574;-63
2021/12/26 20:19:17;;;;;;;23.92;10.65;;;;;;;-4.11;93.85;101030.56;5096736;27;20055;-63
2021/12/26 20:21:46;;;;;;;27.52;11.40;;;;;;;-4.11;93.76;101028.91;5099942;27;20064;-61
2021/12/26 20:24:14;;;;;;;25.38;10.48;;;;;;;-4.08;93.48;101031.59;5098372;27;21521;-61
2021/12/26 20:26:42;;;;;;;22.63;10.35;;;;;;;-4.08;93.29;101035.78;5095784;27;20055;-63
2021/12/26 20:29:09;;;;;;;28.02;11.35;;;;;;;-4.09;93.30;101028.97;5095539;27;20048;-62
2021/12/26 20:31:38;;;;;;;26.45;11.27;;;;;;;-4.12;93.32;101027.16;5095621;27;20488;-62
2021/12/26 20:34:05;;;;;;;27.13;12.57;;;;;;;-4.14;92.83;101028.72;5097328;27;20439;-62
2021/12/26 20:36:32;;;;;;;26.40;12.85;;;;;;;-4.17;92.62;101028.53;5101051;27;20062;-62
2021/12/26 20:39:01;;;;;;;25.20;10.68;;;;;;;-4.19;92.69;101030.09;5101466;27;20392;-61
2021/12/26 20:41:28;;;;;;;22.63;9.52;;;;;;;-4.20;93.00;101036.81;5103629;27;20094;-62
2021/12/26 20:43:56;;;;;;;29.45;9.45;;;;;;;-4.20;92.74;101036.81;5095674;27;20062;-61
2021/12/26 20:46:23;;;;;;;22.10;9.50;;;;;;;-4.21;92.79;101040.16;5096828;27;20050;-61
2021/12/26 20:48:52;;;;;;;21.58;8.82;;;;;;;-4.22;92.74;101043.47;5099485;27;20090;-62
2021/12/26 20:51:19;;;;;;;23.45;11.35;;;;;;;-4.26;92.75;101035.63;5099055;28;20048;-62
2021/12/26 20:53:46;;;;;;;21.30;10.15;;;;;;;-4.26;93.15;101040.69;5095919;27;20036;-61
2021/12/26 20:56:14;;;;;;;23.13;10.70;;;;;;;-4.28;93.28;101037.19;5100590;27;20504;-61
2021/12/26 20:58:42;;;;;;;22.38;9.52;;;;;;;-4.28;93.34;101034.66;5104173;27;20104;-61
2021/12/26 21:01:10;;;;;;;25.98;10.07;;;;;;;-4.27;93.68;101039.81;5100060;27;20042;-61
2021/12/26 21:03:38;;;;;;;24.10;9.52;;;;;;;-4.27;93.44;101033.88;5093730;27;20044;-62
2021/12/26 21:06:07;;;;;;;26.08;9.38;;;;;;;-4.31;93.27;101031.97;5097238;27;20059;-62
2021/12/26 21:08:35;;;;;;;38.10;13.05;;;;;;;-4.34;93.58;101026.72;5097473;27;20036;-62
2021/12/26 21:11:05;;;;;;;25.10;9.57;;;;;;;-4.31;93.95;101032.84;5095703;27;20048;-61
2021/12/26 21:13:33;;;;;;;30.02;14.10;;;;;;;-4.33;93.53;101042.00;5094862;27;20047;-61
2021/12/26 21:16:00;;;;;;;34.20;12.23;;;;;;;-4.31;93.66;101037.91;5098513;27;20423;-61
2021/12/26 21:18:31;;;;;;;22.83;10.15;;;;;;;-4.28;93.66;101037.19;5096423;27;20764;-62
2021/12/26 21:20:59;;;;;;;26.80;11.27;;;;;;;-4.25;93.58;101032.28;5099627;27;20040;-62
2021/12/26 21:23:29;;;;;;;24.40;11.15;;;;;;;-4.27;93.32;101038.94;5098026;27;20500;-62
2021/12/26 21:25:56;;;;;;;42.45;15.75;;;;;;;-4.27;93.22;101038.94;5095151;27;20051;-61
2021/12/26 21:28:23;;;;;;;80.50;27.25;;;;;;;-4.26;93.14;101041.56;5094090;28;20036;-62
2021/12/26 21:30:51;;;;;;;35.70;14.73;;;;;;;-4.22;93.20;101052.72;5098284;28;20407;-62
2021/12/26 21:33:19;;;;;;;26.65;10.55;;;;;;;-4.20;93.61;101041.03;5098526;28;20058;-62
2021/12/26 21:35:46;;;;;;;70.70;23.88;;;;;;;-4.17;93.53;101054.72;5093588;28;21890;-61
2021/12/26 21:38:17;;;;;;;59.00;22.33;;;;;;;-4.14;93.71;101051.50;5100717;27;20068;-61